sensor_id;sensor_type;location;lat;lon;timestamp;temperature;humidity
20594;DHT22;10455;48.732;10.266;2023-03-01T00:02:52;-3.20;99.90
20594;DHT22;10455;48.732;10.266;2023-03-01T00:07:55;-2.90;99.90
20594;DHT22;10455;48.732;10.266;2023-03-01T00:12:58;-2.80;99.90
20594;DHT22;10455;48.732;10.266;2023-03-01T00:18:00;-2.90;99.90
20594;DHT22;10455;48.732;10.266;2023-03-01T00:23:02;-2.80;99.90
20594;DHT22;10455;48.732;10.266;2023-03-01T00:28:05;-2.70;99.90
20594;DHT22;10455;48.732;10.266;2023-03-01T00:33:07;-2.70;99.90
20594;DHT22;10455;48.732;10.266;2023-03-01T00:38:09;-2.70;99.90
20594;DHT22;10455;48.732;10.266;2023-03-01T00:43:12;-2.60;99.90
20594;DHT22;10455;48.732;10.266;2023-03-01T00:48:14;-2.40;99.90
20594;DHT22;10455;48.732;10.266;2023-03-01T00:53:16;-2.30;99.90
20594;DHT22;10455;48.732;10.266;2023-03-01T00:58:19;-2.10;99.90
20594;DHT22;10455;48.732;10.266;2023-03-01T01:03:21;-1.90;99.90
20594;DHT22;10455;48.732;10.266;2023-03-01T01:08:25;-1.80;99.90
20594;DHT22;10455;48.732;10.266;2023-03-01T01:13:28;-1.70;99.90
20594;DHT22;10455;48.732;10.266;2023-03-01T01:18:30;-1.50;99.90
20594;DHT22;10455;48.732;10.266;2023-03-01T01:23:32;-1.40;99.90
20594;DHT22;10455;48.732;10.266;2023-03-01T01:28:35;-1.30;99.90
20594;DHT22;10455;48.732;10.266;2023-03-01T01:33:37;-1.40;99.90
20594;DHT22;10455;48.732;10.266;2023-03-01T01:38:40;-1.70;99.90
20594;DHT22;10455;48.732;10.266;2023-03-01T01:43:45;-1.80;99.90
20594;DHT22;10455;48.732;10.266;2023-03-01T01:48:52;-1.70;99.90
20594;DHT22;10455;48.732;10.266;2023-03-01T01:53:58;-1.70;99.90
20594;DHT22;10455;48.732;10.266;2023-03-01T01:59:03;-1.60;99.90
20594;DHT22;10455;48.732;10.266;2023-03-01T02:04:05;-1.70;99.90
20594;DHT22;10455;48.732;10.266;2023-03-01T02:09:12;-1.70;99.90
20594;DHT22;10455;48.732;10.266;2023-03-01T02:14:16;-1.70;99.90
20594;DHT22;10455;48.732;10.266;2023-03-01T02:19:28;-1.70;99.90
20594;DHT22;10455;48.732;10.266;2023-03-01T02:24:35;-1.80;99.90
20594;DHT22;10455;48.732;10.266;2023-03-01T02:29:41;-1.60;99.90
20594;DHT22;10455;48.732;10.266;2023-03-01T02:34:44;-1.50;99.90
20594;DHT22;10455;48.732;10.266;2023-03-01T02:39:48;-1.60;99.90
20594;DHT22;10455;48.732;10.266;2023-03-01T02:44:51;-1.50;99.90
20594;DHT22;10455;48.732;10.266;2023-03-01T02:49:54;-1.60;99.90
20594;DHT22;10455;48.732;10.266;2023-03-01T02:54:59;-1.70;99.90
20594;DHT22;10455;48.732;10.266;2023-03-01T03:00:07;-1.60;99.90
20594;DHT22;10455;48.732;10.266;2023-03-01T03:05:12;-1.70;99.90
20594;DHT22;10455;48.732;10.266;2023-03-01T03:10:16;-1.70;99.90
20594;DHT22;10455;48.732;10.266;2023-03-01T03:15:21;-1.50;99.90
20594;DHT22;10455;48.732;10.266;2023-03-01T03:20:25;-1.60;99.90
20594;DHT22;10455;48.732;10.266;2023-03-01T03:25:28;-1.60;99.90
20594;DHT22;10455;48.732;10.266;2023-03-01T03:30:32;-1.60;99.90
20594;DHT22;10455;48.732;10.266;2023-03-01T03:35:37;-1.60;99.90
20594;DHT22;10455;48.732;10.266;2023-03-01T03:40:42;-1.60;99.90
20594;DHT22;10455;48.732;10.266;2023-03-01T03:45:46;-1.60;99.90
20594;DHT22;10455;48.732;10.266;2023-03-01T03:50:50;-1.60;99.90
20594;DHT22;10455;48.732;10.266;2023-03-01T03:55:52;-1.60;99.90
20594;DHT22;10455;48.732;10.266;2023-03-01T04:00:57;-1.60;99.90
20594;DHT22;10455;48.732;10.266;2023-03-01T04:06:00;-1.70;99.90
20594;DHT22;10455;48.732;10.266;2023-03-01T04:11:04;-1.70;99.90
20594;DHT22;10455;48.732;10.266;2023-03-01T04:16:22;-1.70;99.90
20594;DHT22;10455;48.732;10.266;2023-03-01T04:21:24;-1.60;99.90
20594;DHT22;10455;48.732;10.266;2023-03-01T04:26:26;-1.70;99.90
20594;DHT22;10455;48.732;10.266;2023-03-01T04:31:29;-1.60;99.90
20594;DHT22;10455;48.732;10.266;2023-03-01T04:36:31;-1.70;99.90
20594;DHT22;10455;48.732;10.266;2023-03-01T04:41:35;-1.70;99.90
20594;DHT22;10455;48.732;10.266;2023-03-01T04:46:39;-1.70;99.90
20594;DHT22;10455;48.732;10.266;2023-03-01T04:51:41;-1.80;99.90
20594;DHT22;10455;48.732;10.266;2023-03-01T04:56:43;-1.90;99.90
20594;DHT22;10455;48.732;10.266;2023-03-01T05:01:47;-1.80;99.90
20594;DHT22;10455;48.732;10.266;2023-03-01T05:06:48;-2.00;99.90
20594;DHT22;10455;48.732;10.266;2023-03-01T05:11:50;-2.20;99.90
20594;DHT22;10455;48.732;10.266;2023-03-01T05:16:53;-2.30;99.90
20594;DHT22;10455;48.732;10.266;2023-03-01T05:21:55;-2.40;99.90
20594;DHT22;10455;48.732;10.266;2023-03-01T05:27:04;-2.70;99.90
20594;DHT22;10455;48.732;10.266;2023-03-01T05:32:08;-3.10;99.90
20594;DHT22;10455;48.732;10.266;2023-03-01T05:37:15;-3.20;99.90
20594;DHT22;10455;48.732;10.266;2023-03-01T05:42:17;-3.40;99.90
20594;DHT22;10455;48.732;10.266;2023-03-01T05:47:21;-3.30;99.90
20594;DHT22;10455;48.732;10.266;2023-03-01T05:52:22;-3.30;99.90
20594;DHT22;10455;48.732;10.266;2023-03-01T05:57:24;-3.50;99.90
20594;DHT22;10455;48.732;10.266;2023-03-01T06:02:27;-3.70;99.90
20594;DHT22;10455;48.732;10.266;2023-03-01T06:07:29;-3.60;99.90
20594;DHT22;10455;48.732;10.266;2023-03-01T06:12:32;-3.50;99.90
20594;DHT22;10455;48.732;10.266;2023-03-01T06:17:36;-3.50;99.90
20594;DHT22;10455;48.732;10.266;2023-03-01T06:22:38;-3.60;99.90
20594;DHT22;10455;48.732;10.266;2023-03-01T06:27:41;-3.30;99.90
20594;DHT22;10455;48.732;10.266;2023-03-01T06:32:45;-3.30;99.90
20594;DHT22;10455;48.732;10.266;2023-03-01T06:37:47;-3.30;99.90
20594;DHT22;10455;48.732;10.266;2023-03-01T06:42:50;-3.20;99.90
20594;DHT22;10455;48.732;10.266;2023-03-01T06:48:01;-1.80;99.90
20594;DHT22;10455;48.732;10.266;2023-03-01T06:53:04;-0.20;99.90
20594;DHT22;10455;48.732;10.266;2023-03-01T06:58:06;0.40;99.90
20594;DHT22;10455;48.732;10.266;2023-03-01T07:03:09;1.00;99.90
20594;DHT22;10455;48.732;10.266;2023-03-01T07:08:11;1.10;99.90
20594;DHT22;10455;48.732;10.266;2023-03-01T07:13:13;1.40;99.90
20594;DHT22;10455;48.732;10.266;2023-03-01T07:18:16;2.00;99.90
20594;DHT22;10455;48.732;10.266;2023-03-01T07:23:18;2.60;99.90
20594;DHT22;10455;48.732;10.266;2023-03-01T07:28:20;2.70;99.90
20594;DHT22;10455;48.732;10.266;2023-03-01T07:33:25;3.20;99.90
20594;DHT22;10455;48.732;10.266;2023-03-01T07:38:27;1.90;99.90
20594;DHT22;10455;48.732;10.266;2023-03-01T07:43:29;2.70;99.90
20594;DHT22;10455;48.732;10.266;2023-03-01T07:48:33;2.70;99.90
20594;DHT22;10455;48.732;10.266;2023-03-01T07:53:35;3.50;99.90
20594;DHT22;10455;48.732;10.266;2023-03-01T07:58:38;4.00;99.90
20594;DHT22;10455;48.732;10.266;2023-03-01T08:03:41;3.90;99.90
20594;DHT22;10455;48.732;10.266;2023-03-01T08:08:44;4.70;99.90
20594;DHT22;10455;48.732;10.266;2023-03-01T08:13:47;5.20;99.90
20594;DHT22;10455;48.732;10.266;2023-03-01T08:18:51;4.60;99.90
20594;DHT22;10455;48.732;10.266;2023-03-01T08:23:54;5.40;99.90
20594;DHT22;10455;48.732;10.266;2023-03-01T08:28:56;5.20;99.90
20594;DHT22;10455;48.732;10.266;2023-03-01T08:34:01;5.50;99.90
20594;DHT22;10455;48.732;10.266;2023-03-01T08:39:03;6.40;99.90
20594;DHT22;10455;48.732;10.266;2023-03-01T08:44:05;6.40;99.90
20594;DHT22;10455;48.732;10.266;2023-03-01T08:49:12;5.30;99.90
20594;DHT22;10455;48.732;10.266;2023-03-01T08:54:17;4.30;99.90
20594;DHT22;10455;48.732;10.266;2023-03-01T08:59:19;4.60;99.90
20594;DHT22;10455;48.732;10.266;2023-03-01T09:04:22;4.00;99.90
20594;DHT22;10455;48.732;10.266;2023-03-01T09:09:24;3.30;99.90
20594;DHT22;10455;48.732;10.266;2023-03-01T09:14:26;3.50;99.90
20594;DHT22;10455;48.732;10.266;2023-03-01T09:19:29;4.10;99.90
20594;DHT22;10455;48.732;10.266;2023-03-01T09:24:31;3.70;99.90
20594;DHT22;10455;48.732;10.266;2023-03-01T09:29:33;4.00;99.90
20594;DHT22;10455;48.732;10.266;2023-03-01T09:34:36;4.50;99.90
20594;DHT22;10455;48.732;10.266;2023-03-01T09:39:58;5.40;99.90
20594;DHT22;10455;48.732;10.266;2023-03-01T09:45:03;5.40;99.90
20594;DHT22;10455;48.732;10.266;2023-03-01T09:50:12;5.90;99.90
20594;DHT22;10455;48.732;10.266;2023-03-01T09:55:26;5.80;99.90
20594;DHT22;10455;48.732;10.266;2023-03-01T10:00:34;5.40;99.90
20594;DHT22;10455;48.732;10.266;2023-03-01T10:05:50;6.20;99.90
20594;DHT22;10455;48.732;10.266;2023-03-01T10:10:54;5.10;99.90
20594;DHT22;10455;48.732;10.266;2023-03-01T10:15:59;5.30;99.90
20594;DHT22;10455;48.732;10.266;2023-03-01T10:21:13;4.30;99.90
20594;DHT22;10455;48.732;10.266;2023-03-01T10:26:26;5.20;99.90
20594;DHT22;10455;48.732;10.266;2023-03-01T10:31:38;5.10;99.90
20594;DHT22;10455;48.732;10.266;2023-03-01T10:36:43;5.10;99.90
20594;DHT22;10455;48.732;10.266;2023-03-01T10:41:58;5.40;99.90
20594;DHT22;10455;48.732;10.266;2023-03-01T10:47:00;6.30;99.90
20594;DHT22;10455;48.732;10.266;2023-03-01T10:52:18;6.30;99.90
20594;DHT22;10455;48.732;10.266;2023-03-01T10:57:33;6.30;99.90
20594;DHT22;10455;48.732;10.266;2023-03-01T11:02:37;6.50;99.90
20594;DHT22;10455;48.732;10.266;2023-03-01T11:07:49;7.60;99.80
20594;DHT22;10455;48.732;10.266;2023-03-01T11:12:51;6.90;99.90
20594;DHT22;10455;48.732;10.266;2023-03-01T11:17:54;6.50;99.90
20594;DHT22;10455;48.732;10.266;2023-03-01T11:23:02;6.10;99.90
20594;DHT22;10455;48.732;10.266;2023-03-01T11:28:06;6.30;99.90
20594;DHT22;10455;48.732;10.266;2023-03-01T11:33:17;6.50;99.90
20594;DHT22;10455;48.732;10.266;2023-03-01T11:38:24;7.10;99.90
20594;DHT22;10455;48.732;10.266;2023-03-01T11:43:32;6.40;99.90
20594;DHT22;10455;48.732;10.266;2023-03-01T11:48:46;6.60;99.90
20594;DHT22;10455;48.732;10.266;2023-03-01T11:53:58;6.10;99.90
20594;DHT22;10455;48.732;10.266;2023-03-01T11:59:19;5.70;99.90
20594;DHT22;10455;48.732;10.266;2023-03-01T12:04:49;5.80;99.90
20594;DHT22;10455;48.732;10.266;2023-03-01T12:15:38;6.10;99.90
20594;DHT22;10455;48.732;10.266;2023-03-01T12:20:46;6.00;99.90
20594;DHT22;10455;48.732;10.266;2023-03-01T12:25:55;5.70;99.90
20594;DHT22;10455;48.732;10.266;2023-03-01T12:36:44;5.90;99.90
20594;DHT22;10455;48.732;10.266;2023-03-01T12:41:57;6.40;99.90
20594;DHT22;10455;48.732;10.266;2023-03-01T12:47:11;6.10;99.90
20594;DHT22;10455;48.732;10.266;2023-03-01T12:52:20;6.50;99.90
20594;DHT22;10455;48.732;10.266;2023-03-01T12:57:29;6.60;99.90
20594;DHT22;10455;48.732;10.266;2023-03-01T13:02:41;6.40;99.90
20594;DHT22;10455;48.732;10.266;2023-03-01T13:07:54;6.50;99.90
20594;DHT22;10455;48.732;10.266;2023-03-01T13:13:12;7.50;99.90
20594;DHT22;10455;48.732;10.266;2023-03-01T13:18:32;7.30;99.90
20594;DHT22;10455;48.732;10.266;2023-03-01T13:23:36;6.70;99.90
20594;DHT22;10455;48.732;10.266;2023-03-01T13:28:54;7.00;99.90
20594;DHT22;10455;48.732;10.266;2023-03-01T13:33:58;7.30;99.90
20594;DHT22;10455;48.732;10.266;2023-03-01T13:39:01;7.70;99.90
20594;DHT22;10455;48.732;10.266;2023-03-01T13:44:12;7.10;99.90
20594;DHT22;10455;48.732;10.266;2023-03-01T13:49:16;7.40;99.90
20594;DHT22;10455;48.732;10.266;2023-03-01T13:54:26;7.70;99.90
20594;DHT22;10455;48.732;10.266;2023-03-01T13:59:30;7.40;99.90
20594;DHT22;10455;48.732;10.266;2023-03-01T14:04:33;7.30;99.90
20594;DHT22;10455;48.732;10.266;2023-03-01T14:09:39;7.50;99.90
20594;DHT22;10455;48.732;10.266;2023-03-01T14:14:51;7.20;99.90
20594;DHT22;10455;48.732;10.266;2023-03-01T14:19:56;7.20;99.90
20594;DHT22;10455;48.732;10.266;2023-03-01T14:25:00;7.60;99.90
20594;DHT22;10455;48.732;10.266;2023-03-01T14:30:10;7.30;99.90
20594;DHT22;10455;48.732;10.266;2023-03-01T14:35:20;7.80;99.90
20594;DHT22;10455;48.732;10.266;2023-03-01T14:40:26;7.80;99.90
20594;DHT22;10455;48.732;10.266;2023-03-01T14:45:30;8.00;99.90
20594;DHT22;10455;48.732;10.266;2023-03-01T14:50:33;7.40;99.90
20594;DHT22;10455;48.732;10.266;2023-03-01T14:55:37;7.50;99.90
20594;DHT22;10455;48.732;10.266;2023-03-01T15:00:48;7.70;99.90
20594;DHT22;10455;48.732;10.266;2023-03-01T15:05:51;7.60;99.90
20594;DHT22;10455;48.732;10.266;2023-03-01T15:10:59;7.40;99.90
20594;DHT22;10455;48.732;10.266;2023-03-01T15:16:09;7.80;99.90
20594;DHT22;10455;48.732;10.266;2023-03-01T15:21:17;7.50;99.90
20594;DHT22;10455;48.732;10.266;2023-03-01T15:26:25;7.30;99.90
20594;DHT22;10455;48.732;10.266;2023-03-01T15:31:30;7.20;99.90
20594;DHT22;10455;48.732;10.266;2023-03-01T15:36:43;7.10;99.90
20594;DHT22;10455;48.732;10.266;2023-03-01T15:41:47;6.10;99.90
20594;DHT22;10455;48.732;10.266;2023-03-01T15:46:51;5.90;99.90
20594;DHT22;10455;48.732;10.266;2023-03-01T15:51:54;5.80;99.90
20594;DHT22;10455;48.732;10.266;2023-03-01T15:56:56;5.70;99.90
20594;DHT22;10455;48.732;10.266;2023-03-01T16:01:59;5.60;99.90
20594;DHT22;10455;48.732;10.266;2023-03-01T16:07:01;5.60;99.90
20594;DHT22;10455;48.732;10.266;2023-03-01T16:12:03;5.50;99.90
20594;DHT22;10455;48.732;10.266;2023-03-01T16:17:08;5.40;99.90
20594;DHT22;10455;48.732;10.266;2023-03-01T16:22:10;5.30;99.90
20594;DHT22;10455;48.732;10.266;2023-03-01T16:27:12;5.10;99.90
20594;DHT22;10455;48.732;10.266;2023-03-01T16:32:17;5.00;99.90
20594;DHT22;10455;48.732;10.266;2023-03-01T16:37:19;4.80;99.90
20594;DHT22;10455;48.732;10.266;2023-03-01T16:42:22;4.80;99.90
20594;DHT22;10455;48.732;10.266;2023-03-01T16:47:25;4.60;99.90
20594;DHT22;10455;48.732;10.266;2023-03-01T16:52:27;4.30;99.90
20594;DHT22;10455;48.732;10.266;2023-03-01T16:57:29;4.30;99.90
20594;DHT22;10455;48.732;10.266;2023-03-01T17:02:33;4.00;99.90
20594;DHT22;10455;48.732;10.266;2023-03-01T17:07:35;3.70;99.90
20594;DHT22;10455;48.732;10.266;2023-03-01T17:12:37;3.50;99.90
20594;DHT22;10455;48.732;10.266;2023-03-01T17:17:41;3.40;99.90
20594;DHT22;10455;48.732;10.266;2023-03-01T17:22:43;3.30;99.90
20594;DHT22;10455;48.732;10.266;2023-03-01T17:27:45;3.10;99.90
20594;DHT22;10455;48.732;10.266;2023-03-01T17:32:48;2.90;99.90
20594;DHT22;10455;48.732;10.266;2023-03-01T17:37:50;2.80;99.90
20594;DHT22;10455;48.732;10.266;2023-03-01T17:42:52;2.70;99.90
20594;DHT22;10455;48.732;10.266;2023-03-01T17:47:55;2.50;99.90
20594;DHT22;10455;48.732;10.266;2023-03-01T17:52:57;2.40;99.90
20594;DHT22;10455;48.732;10.266;2023-03-01T17:57:59;2.20;99.90
20594;DHT22;10455;48.732;10.266;2023-03-01T18:03:03;2.30;99.90
20594;DHT22;10455;48.732;10.266;2023-03-01T18:08:05;2.40;99.90
20594;DHT22;10455;48.732;10.266;2023-03-01T18:13:06;2.40;99.90
20594;DHT22;10455;48.732;10.266;2023-03-01T18:18:10;2.30;99.90
20594;DHT22;10455;48.732;10.266;2023-03-01T18:23:11;1.90;99.90
20594;DHT22;10455;48.732;10.266;2023-03-01T18:28:13;1.90;99.90
20594;DHT22;10455;48.732;10.266;2023-03-01T18:33:17;1.80;99.90
20594;DHT22;10455;48.732;10.266;2023-03-01T18:38:18;1.80;99.90
20594;DHT22;10455;48.732;10.266;2023-03-01T18:43:21;1.80;99.90
20594;DHT22;10455;48.732;10.266;2023-03-01T18:48:24;1.70;99.90
20594;DHT22;10455;48.732;10.266;2023-03-01T18:53:27;1.60;99.90
20594;DHT22;10455;48.732;10.266;2023-03-01T18:58:29;1.60;99.90
20594;DHT22;10455;48.732;10.266;2023-03-01T19:03:32;1.60;99.90
20594;DHT22;10455;48.732;10.266;2023-03-01T19:08:35;1.30;99.90
20594;DHT22;10455;48.732;10.266;2023-03-01T19:13:38;1.30;99.90
20594;DHT22;10455;48.732;10.266;2023-03-01T19:18:43;1.20;99.90
20594;DHT22;10455;48.732;10.266;2023-03-01T19:23:50;1.20;99.90
20594;DHT22;10455;48.732;10.266;2023-03-01T19:28:53;1.20;99.90
20594;DHT22;10455;48.732;10.266;2023-03-01T19:33:56;1.20;99.90
20594;DHT22;10455;48.732;10.266;2023-03-01T19:38:59;1.10;99.90
20594;DHT22;10455;48.732;10.266;2023-03-01T19:44:01;1.00;99.90
20594;DHT22;10455;48.732;10.266;2023-03-01T19:49:06;1.00;99.90
20594;DHT22;10455;48.732;10.266;2023-03-01T19:54:08;0.90;99.90
20594;DHT22;10455;48.732;10.266;2023-03-01T19:59:12;0.80;99.90
20594;DHT22;10455;48.732;10.266;2023-03-01T20:04:15;0.80;99.90
20594;DHT22;10455;48.732;10.266;2023-03-01T20:09:17;0.80;99.90
20594;DHT22;10455;48.732;10.266;2023-03-01T20:14:19;0.70;99.90
20594;DHT22;10455;48.732;10.266;2023-03-01T20:19:23;0.70;99.90
20594;DHT22;10455;48.732;10.266;2023-03-01T20:24:25;0.60;99.90
20594;DHT22;10455;48.732;10.266;2023-03-01T20:29:27;0.50;99.90
20594;DHT22;10455;48.732;10.266;2023-03-01T20:34:30;0.60;99.90
20594;DHT22;10455;48.732;10.266;2023-03-01T20:39:32;0.60;99.90
20594;DHT22;10455;48.732;10.266;2023-03-01T20:44:34;0.50;99.90
20594;DHT22;10455;48.732;10.266;2023-03-01T20:49:43;0.50;99.90
20594;DHT22;10455;48.732;10.266;2023-03-01T20:54:45;0.40;99.90
20594;DHT22;10455;48.732;10.266;2023-03-01T20:59:48;0.30;99.90
20594;DHT22;10455;48.732;10.266;2023-03-01T21:04:51;0.30;99.90
20594;DHT22;10455;48.732;10.266;2023-03-01T21:09:53;0.10;99.90
20594;DHT22;10455;48.732;10.266;2023-03-01T21:14:55;0.10;99.90
20594;DHT22;10455;48.732;10.266;2023-03-01T21:19:58;0.10;99.90
20594;DHT22;10455;48.732;10.266;2023-03-01T21:25:00;0.00;99.90
20594;DHT22;10455;48.732;10.266;2023-03-01T21:30:02;0.00;99.90
20594;DHT22;10455;48.732;10.266;2023-03-01T21:35:06;0.00;99.90
20594;DHT22;10455;48.732;10.266;2023-03-01T21:40:09;-0.10;99.90
20594;DHT22;10455;48.732;10.266;2023-03-01T21:45:11;-0.20;99.90
20594;DHT22;10455;48.732;10.266;2023-03-01T21:55:16;-0.30;99.90
20594;DHT22;10455;48.732;10.266;2023-03-01T22:00:19;-0.30;99.90
20594;DHT22;10455;48.732;10.266;2023-03-01T22:05:24;-0.30;99.90
20594;DHT22;10455;48.732;10.266;2023-03-01T22:10:26;-0.30;99.90
20594;DHT22;10455;48.732;10.266;2023-03-01T22:15:28;-0.30;99.90
20594;DHT22;10455;48.732;10.266;2023-03-01T22:20:32;-0.40;99.90
20594;DHT22;10455;48.732;10.266;2023-03-01T22:25:39;-0.50;99.90
20594;DHT22;10455;48.732;10.266;2023-03-01T22:30:41;-0.60;99.90
20594;DHT22;10455;48.732;10.266;2023-03-01T22:35:46;-0.60;99.90
20594;DHT22;10455;48.732;10.266;2023-03-01T22:40:55;-0.70;99.90
20594;DHT22;10455;48.732;10.266;2023-03-01T22:45:57;-0.80;99.90
20594;DHT22;10455;48.732;10.266;2023-03-01T22:51:00;-0.90;99.90
20594;DHT22;10455;48.732;10.266;2023-03-01T22:56:13;-0.90;99.90
20594;DHT22;10455;48.732;10.266;2023-03-01T23:01:16;-1.20;99.90
20594;DHT22;10455;48.732;10.266;2023-03-01T23:06:21;-1.40;99.90
20594;DHT22;10455;48.732;10.266;2023-03-01T23:11:25;-1.50;99.90
20594;DHT22;10455;48.732;10.266;2023-03-01T23:16:27;-1.50;99.90
20594;DHT22;10455;48.732;10.266;2023-03-01T23:21:32;-1.50;99.90
20594;DHT22;10455;48.732;10.266;2023-03-01T23:26:34;-1.60;99.90
20594;DHT22;10455;48.732;10.266;2023-03-01T23:31:36;-1.70;99.90
20594;DHT22;10455;48.732;10.266;2023-03-01T23:36:39;-1.60;99.90
20594;DHT22;10455;48.732;10.266;2023-03-01T23:41:45;-1.50;99.90
20594;DHT22;10455;48.732;10.266;2023-03-01T23:46:48;-1.20;99.90
20594;DHT22;10455;48.732;10.266;2023-03-01T23:51:51;-1.10;99.90
20594;DHT22;10455;48.732;10.266;2023-03-01T23:56:53;-1.20;99.90
